createdAt,value
2023-01-22T00:01:20.199Z,8.25
2023-01-22T00:03:49.775Z,8.15
2023-01-22T00:06:18.081Z,8.32
2023-01-22T00:08:46.904Z,8.06
2023-01-22T00:11:16.330Z,8.22
2023-01-22T00:13:45.029Z,8.22
2023-01-22T00:16:15.499Z,8.22
2023-01-22T00:18:44.183Z,8.16
2023-01-22T00:21:13.917Z,8.21
2023-01-22T00:23:41.829Z,8.33
2023-01-22T00:26:16.402Z,8.17
2023-01-22T00:28:46.058Z,8.20
2023-01-22T00:31:16.504Z,8.32
2023-01-22T00:33:45.662Z,8.34
2023-01-22T00:36:20.154Z,8.55
2023-01-22T00:38:50.578Z,8.60
2023-01-22T00:41:19.931Z,8.71
2023-01-22T00:43:48.138Z,8.64
2023-01-22T00:46:17.933Z,8.70
2023-01-22T00:48:45.836Z,8.64
2023-01-22T00:51:15.860Z,8.54
2023-01-22T00:53:46.638Z,8.19
2023-01-22T00:56:15.186Z,7.90
2023-01-22T00:58:43.199Z,7.89
2023-01-22T01:01:14.537Z,7.74
2023-01-22T01:03:42.748Z,7.66
2023-01-22T01:06:22.135Z,7.63
2023-01-22T01:08:50.489Z,7.34
2023-01-22T01:11:30.267Z,7.60
2023-01-22T01:13:58.167Z,7.73
2023-01-22T01:16:30.033Z,7.73
2023-01-22T01:19:05.889Z,7.69
2023-01-22T01:21:35.015Z,7.72
2023-01-22T01:24:02.973Z,7.53
2023-01-22T01:26:31.416Z,7.77
2023-01-22T01:28:59.282Z,7.75
2023-01-22T01:31:27.674Z,7.87
2023-01-22T01:33:58.599Z,7.77
2023-01-22T01:36:47.100Z,7.85
2023-01-22T01:39:14.675Z,8.01
2023-01-22T01:41:44.457Z,8.09
2023-01-22T01:44:21.023Z,8.09
2023-01-22T01:46:54.515Z,7.88
2023-01-22T01:49:35.348Z,8.10
2023-01-22T01:52:09.571Z,7.93
2023-01-22T01:54:43.159Z,8.14
2023-01-22T01:57:22.406Z,8.28
2023-01-22T01:59:52.054Z,8.14
2023-01-22T02:02:20.925Z,7.91
2023-01-22T02:04:51.495Z,7.83
2023-01-22T02:07:20.845Z,7.82
2023-01-22T02:09:48.790Z,7.28
2023-01-22T02:12:16.999Z,7.45
2023-01-22T02:14:46.838Z,7.41
2023-01-22T02:17:19.209Z,7.47
2023-01-22T02:19:47.826Z,7.60
2023-01-22T02:22:21.411Z,7.55
2023-01-22T02:24:50.375Z,7.53
2023-01-22T02:27:20.793Z,7.47
2023-01-22T02:29:50.118Z,7.84
2023-01-22T02:32:18.821Z,7.85
2023-01-22T02:34:46.720Z,7.74
2023-01-22T02:37:16.027Z,7.72
2023-01-22T02:39:43.883Z,7.82
2023-01-22T02:42:12.457Z,7.70
2023-01-22T02:44:42.001Z,7.75
2023-01-22T02:47:11.278Z,7.86
2023-01-22T02:49:39.163Z,7.98
2023-01-22T02:52:07.951Z,7.78
2023-01-22T02:54:36.616Z,7.43
2023-01-22T02:57:04.857Z,7.41
2023-01-22T02:59:32.767Z,7.65
2023-01-22T03:02:02.332Z,7.48
2023-01-22T03:04:30.208Z,7.28
2023-01-22T03:06:58.386Z,7.14
2023-01-22T03:09:30.082Z,7.10
2023-01-22T03:11:59.251Z,7.25
2023-01-22T03:14:49.722Z,7.29
2023-01-22T03:17:38.167Z,7.32
2023-01-22T03:20:25.218Z,7.18
2023-01-22T03:22:54.403Z,7.33
2023-01-22T03:25:22.257Z,7.53
2023-01-22T03:28:16.656Z,7.61
2023-01-22T03:30:49.617Z,7.68
2023-01-22T03:33:19.157Z,7.51
2023-01-22T03:35:50.176Z,7.60
2023-01-22T03:38:22.613Z,7.54
2023-01-22T03:40:50.539Z,7.73
2023-01-22T03:43:20.377Z,7.66
2023-01-22T03:45:48.691Z,7.63
2023-01-22T03:48:20.979Z,7.56
2023-01-22T03:50:49.378Z,7.69
2023-01-22T03:53:18.804Z,7.76
2023-01-22T03:55:46.716Z,7.00
2023-01-22T03:58:14.898Z,6.99
2023-01-22T04:00:42.811Z,6.71
2023-01-22T04:03:12.349Z,6.81
2023-01-22T04:05:41.571Z,6.93
2023-01-22T04:08:09.867Z,7.10
2023-01-22T04:10:42.887Z,7.27
2023-01-22T04:13:11.163Z,7.32
2023-01-22T04:15:44.917Z,7.17
2023-01-22T04:18:39.247Z,7.24
2023-01-22T04:21:22.050Z,7.11
2023-01-22T04:23:59.160Z,7.17
2023-01-22T04:26:27.115Z,7.32
2023-01-22T04:28:57.427Z,7.51
2023-01-22T04:31:26.397Z,7.46
2023-01-22T04:34:16.044Z,7.64
2023-01-22T04:36:54.217Z,7.74
2023-01-22T04:39:24.544Z,7.58
2023-01-22T04:41:52.467Z,7.67
2023-01-22T04:44:21.099Z,7.54
2023-01-22T04:46:49.125Z,7.57
2023-01-22T04:49:17.331Z,7.49
2023-01-22T04:51:46.248Z,7.45
2023-01-22T04:54:14.457Z,7.40
2023-01-22T04:56:42.328Z,7.63
2023-01-22T04:59:11.407Z,7.68
2023-01-22T05:01:42.697Z,7.72
2023-01-22T05:04:11.333Z,7.72
2023-01-22T05:06:39.237Z,7.61
2023-01-22T05:09:07.479Z,7.51
2023-01-22T05:11:50.404Z,7.46
2023-01-22T05:14:19.047Z,7.52
2023-01-22T05:16:49.600Z,7.45
2023-01-22T05:19:17.967Z,7.42
2023-01-22T05:21:46.220Z,7.54
2023-01-22T05:24:18.820Z,7.53
2023-01-22T05:26:46.818Z,7.90
2023-01-22T05:29:20.143Z,7.79
2023-01-22T05:32:14.087Z,7.65
2023-01-22T05:34:47.098Z,7.71
2023-01-22T05:37:15.057Z,7.54
2023-01-22T05:39:43.405Z,7.53
2023-01-22T05:42:16.300Z,7.63
2023-01-22T05:44:48.847Z,7.59
2023-01-22T05:47:20.122Z,7.42
2023-01-22T05:50:10.198Z,7.62
2023-01-22T05:52:38.048Z,7.60
2023-01-22T05:55:06.738Z,7.65
2023-01-22T05:57:41.898Z,7.72
2023-01-22T06:00:12.461Z,7.81
2023-01-22T06:02:44.583Z,7.63
2023-01-22T06:05:15.217Z,7.77
2023-01-22T06:07:45.688Z,7.72
2023-01-22T06:10:13.957Z,7.96
2023-01-22T06:12:47.580Z,8.06
2023-01-22T06:15:16.063Z,7.95
2023-01-22T06:17:49.243Z,8.13
2023-01-22T06:20:17.762Z,7.98
2023-01-22T06:22:45.932Z,7.72
2023-01-22T06:25:14.233Z,7.74
2023-01-22T06:27:59.742Z,7.59
2023-01-22T06:30:28.049Z,7.60
2023-01-22T06:32:56.194Z,7.74
2023-01-22T06:35:25.721Z,7.79
2023-01-22T06:37:54.380Z,7.70
2023-01-22T06:40:24.090Z,7.60
2023-01-22T06:42:52.099Z,7.70
2023-01-22T06:45:21.062Z,7.54
2023-01-22T06:47:53.361Z,7.68
2023-01-22T06:50:21.543Z,7.74
2023-01-22T06:52:49.441Z,7.75
2023-01-22T06:55:18.746Z,7.99
2023-01-22T06:57:47.303Z,7.91
2023-01-22T07:00:16.161Z,7.54
2023-01-22T07:02:44.411Z,7.70
2023-01-22T07:05:12.794Z,7.84
2023-01-22T07:07:40.632Z,8.07
2023-01-22T07:10:10.161Z,7.98
2023-01-22T07:12:38.072Z,7.63
2023-01-22T07:15:08.139Z,7.86
2023-01-22T07:17:37.699Z,7.78
2023-01-22T07:20:06.158Z,8.02
2023-01-22T07:22:34.071Z,8.03
2023-01-22T07:25:02.374Z,7.94
2023-01-22T07:27:32.690Z,8.22
2023-01-22T07:30:01.160Z,8.19
2023-01-22T07:32:29.162Z,8.15
2023-01-22T07:34:57.333Z,8.19
2023-01-22T07:37:25.232Z,7.60
2023-01-22T07:39:54.077Z,7.85
2023-01-22T07:42:21.979Z,7.52
2023-01-22T07:44:50.322Z,7.84
2023-01-22T07:47:18.315Z,7.74
2023-01-22T07:49:46.599Z,7.84
2023-01-22T07:52:14.579Z,7.84
2023-01-22T07:54:42.906Z,8.24
2023-01-22T07:57:15.762Z,8.08
2023-01-22T07:59:44.028Z,8.19
2023-01-22T08:02:16.453Z,8.43
2023-01-22T08:04:44.640Z,8.43
2023-01-22T08:07:17.045Z,8.61
2023-01-22T08:09:46.269Z,8.59
2023-01-22T08:12:14.078Z,8.92
2023-01-22T08:14:42.262Z,8.93
2023-01-22T08:17:10.122Z,9.09
2023-01-22T08:19:38.332Z,9.18
2023-01-22T08:22:06.443Z,9.27
2023-01-22T08:24:34.871Z,9.21
2023-01-22T08:27:03.311Z,9.53
2023-01-22T08:29:31.574Z,9.51
2023-01-22T08:31:59.491Z,9.61
2023-01-22T08:34:27.994Z,9.53
2023-01-22T08:36:56.093Z,9.63
2023-01-22T08:39:24.463Z,10.00
2023-01-22T08:41:57.511Z,10.13
2023-01-22T08:44:27.160Z,10.18
2023-01-22T08:46:55.023Z,10.36
2023-01-22T08:49:23.322Z,10.80
2023-01-22T08:51:51.200Z,10.94
2023-01-22T08:54:21.713Z,11.03
2023-01-22T08:56:49.781Z,11.14
2023-01-22T08:59:17.919Z,11.40
2023-01-22T09:01:45.837Z,11.67
2023-01-22T09:04:13.994Z,11.36
2023-01-22T09:06:43.059Z,11.32
2023-01-22T09:09:12.602Z,11.36
2023-01-22T09:11:41.055Z,11.91
2023-01-22T09:14:10.199Z,12.25
2023-01-22T09:16:38.314Z,12.44
2023-01-22T09:19:07.919Z,12.67
2023-01-22T09:21:37.566Z,12.29
2023-01-22T09:24:07.034Z,12.16
2023-01-22T09:26:37.420Z,12.05
2023-01-22T09:29:07.318Z,11.74
2023-01-22T09:31:37.158Z,11.50
2023-01-22T09:34:06.560Z,11.42
2023-01-22T09:36:34.579Z,11.16
2023-01-22T09:39:02.769Z,11.17
2023-01-22T09:41:38.997Z,10.94
2023-01-22T09:44:20.291Z,11.11
2023-01-22T09:47:04.058Z,10.68
2023-01-22T09:49:37.164Z,10.83
2023-01-22T09:52:06.639Z,10.78
2023-01-22T09:54:34.950Z,10.85
2023-01-22T09:57:06.368Z,10.99
2023-01-22T09:59:53.099Z,11.06
2023-01-22T10:02:35.448Z,11.01
2023-01-22T10:05:32.133Z,10.94
2023-01-22T10:08:21.889Z,11.18
2023-01-22T10:10:52.270Z,11.48
2023-01-22T10:13:27.730Z,11.44
2023-01-22T10:15:56.829Z,11.73
2023-01-22T10:18:37.808Z,11.83
2023-01-22T10:21:18.652Z,12.04
2023-01-22T10:23:47.299Z,12.04
2023-01-22T10:26:25.400Z,11.96
2023-01-22T10:28:58.582Z,11.80
2023-01-22T10:31:35.840Z,11.56
2023-01-22T10:34:31.561Z,11.92
2023-01-22T10:37:15.348Z,12.61
2023-01-22T10:39:46.397Z,12.87
2023-01-22T10:42:23.314Z,12.65
2023-01-22T10:44:57.130Z,12.61
2023-01-22T10:47:27.802Z,13.14
2023-01-22T10:50:12.801Z,13.57
2023-01-22T10:52:48.165Z,14.60
2023-01-22T10:55:28.500Z,14.58
2023-01-22T10:58:05.040Z,14.98
2023-01-22T11:00:46.660Z,14.57
2023-01-22T11:03:39.759Z,14.50
2023-01-22T11:06:15.598Z,15.05
2023-01-22T11:08:57.421Z,15.37
2023-01-22T11:11:32.183Z,14.69
2023-01-22T11:14:00.381Z,15.32
2023-01-22T11:16:32.470Z,15.34
2023-01-22T11:19:16.788Z,15.58
2023-01-22T11:21:50.700Z,15.60
2023-01-22T11:24:26.437Z,15.72
2023-01-22T11:27:20.811Z,15.36
2023-01-22T11:29:52.059Z,15.91
2023-01-22T11:32:22.981Z,15.59
2023-01-22T11:35:15.246Z,16.32
2023-01-22T11:38:17.815Z,16.82
2023-01-22T11:41:17.046Z,16.33
2023-01-22T11:43:47.884Z,17.19
2023-01-22T11:46:41.147Z,17.63
2023-01-22T11:49:19.590Z,16.41
2023-01-22T11:52:19.248Z,16.72
2023-01-22T11:55:22.957Z,16.02
2023-01-22T11:58:01.727Z,16.52
2023-01-22T12:00:53.968Z,16.48
2023-01-22T12:04:00.872Z,16.56
2023-01-22T12:06:28.838Z,17.78
2023-01-22T12:09:04.628Z,17.64
2023-01-22T12:11:41.253Z,17.57
2023-01-22T12:14:27.786Z,17.58
2023-01-22T12:17:36.319Z,18.55
2023-01-22T12:20:32.211Z,18.39
2023-01-22T12:23:08.931Z,18.64
2023-01-22T12:25:44.389Z,18.74
2023-01-22T12:28:15.590Z,19.36
2023-01-22T12:31:14.464Z,19.26
2023-01-22T12:33:44.267Z,18.91
2023-01-22T12:36:19.948Z,19.42
2023-01-22T12:39:15.392Z,18.66
2023-01-22T12:42:02.193Z,18.24
2023-01-22T12:45:14.077Z,18.65
2023-01-22T12:47:45.510Z,18.96
2023-01-22T12:50:22.146Z,18.36
2023-01-22T12:53:02.879Z,18.35
2023-01-22T12:55:44.075Z,18.25
2023-01-22T12:58:23.563Z,18.59
2023-01-22T13:01:03.421Z,18.71
2023-01-22T13:03:33.474Z,18.95
2023-01-22T13:06:04.359Z,18.39
2023-01-22T13:08:42.565Z,17.63
2023-01-22T13:11:14.172Z,18.02
2023-01-22T13:13:53.979Z,18.70
2023-01-22T13:16:35.532Z,18.74
2023-01-22T13:19:28.564Z,18.63
2023-01-22T13:22:01.028Z,18.40
2023-01-22T13:24:29.462Z,18.44
2023-01-22T13:27:03.246Z,19.08
2023-01-22T13:29:37.935Z,18.39
2023-01-22T13:32:16.864Z,18.74
2023-01-22T13:34:45.306Z,19.39
2023-01-22T13:37:27.264Z,19.32
2023-01-22T13:39:55.622Z,18.59
2023-01-22T13:42:24.978Z,18.69
2023-01-22T13:44:53.387Z,18.55
2023-01-22T13:47:29.542Z,19.04
2023-01-22T13:49:59.550Z,18.79
2023-01-22T13:52:33.589Z,19.13
2023-01-22T13:55:07.065Z,18.90
2023-01-22T13:57:35.134Z,18.95
2023-01-22T14:00:04.734Z,18.97
2023-01-22T14:02:35.869Z,18.13
2023-01-22T14:05:04.563Z,18.11
2023-01-22T14:07:35.190Z,18.20
2023-01-22T14:10:33.961Z,17.96
2023-01-22T14:13:05.066Z,17.45
2023-01-22T14:15:34.719Z,17.19
2023-01-22T14:18:21.465Z,16.07
2023-01-22T14:20:49.743Z,16.24
2023-01-22T14:23:17.639Z,15.37
2023-01-22T14:25:51.338Z,15.32
2023-01-22T14:28:20.127Z,14.91
2023-01-22T14:30:49.877Z,14.89
2023-01-22T14:33:32.516Z,14.81
2023-01-22T14:36:01.402Z,14.49
2023-01-22T14:38:29.511Z,14.38
2023-01-22T14:40:57.912Z,14.58
2023-01-22T14:43:25.926Z,14.58
2023-01-22T14:45:55.235Z,14.07
2023-01-22T14:48:23.542Z,13.75
2023-01-22T14:50:52.022Z,13.88
2023-01-22T14:53:19.964Z,13.61
2023-01-22T14:55:48.292Z,13.20
2023-01-22T14:58:16.612Z,13.57
2023-01-22T15:00:45.775Z,13.61
2023-01-22T15:03:13.875Z,13.25
2023-01-22T15:05:42.152Z,13.24
2023-01-22T15:08:10.167Z,13.23
2023-01-22T15:10:38.532Z,13.33
2023-01-22T15:13:06.514Z,13.29
2023-01-22T15:15:34.862Z,13.26
2023-01-22T15:18:02.784Z,13.04
2023-01-22T15:20:31.134Z,13.28
2023-01-22T15:22:59.183Z,13.13
2023-01-22T15:25:27.571Z,13.10
2023-01-22T15:27:55.573Z,13.08
2023-01-22T15:30:23.947Z,12.97
2023-01-22T15:32:51.901Z,12.58
2023-01-22T15:35:20.213Z,12.47
2023-01-22T15:37:48.721Z,12.41
2023-01-22T15:40:17.848Z,12.40
2023-01-22T15:42:46.093Z,12.30
2023-01-22T15:45:15.538Z,12.16
2023-01-22T15:47:43.618Z,12.28
2023-01-22T15:50:12.154Z,12.42
2023-01-22T15:52:40.101Z,12.02
2023-01-22T15:55:08.848Z,12.03
2023-01-22T15:57:36.888Z,12.16
2023-01-22T16:00:07.863Z,12.17
2023-01-22T16:02:40.408Z,11.88
2023-01-22T16:05:09.027Z,11.87
2023-01-22T16:07:36.953Z,11.50
2023-01-22T16:10:06.183Z,11.59
2023-01-22T16:12:35.102Z,11.71
2023-01-22T16:15:03.562Z,11.66
2023-01-22T16:17:31.513Z,11.59
2023-01-22T16:19:59.821Z,11.56
2023-01-22T16:22:28.023Z,11.49
2023-01-22T16:24:56.344Z,11.39
2023-01-22T16:27:24.348Z,11.44
2023-01-22T16:29:52.574Z,11.34
2023-01-22T16:32:20.691Z,11.48
2023-01-22T16:34:50.190Z,11.51
2023-01-22T16:37:18.128Z,11.54
2023-01-22T16:39:46.311Z,11.22
2023-01-22T16:42:14.285Z,11.25
2023-01-22T16:44:42.726Z,11.35
2023-01-22T16:47:10.823Z,11.45
2023-01-22T16:49:39.091Z,11.44
2023-01-22T16:52:21.884Z,11.40
2023-01-22T16:54:51.532Z,11.63
2023-01-22T16:57:20.377Z,11.62
2023-01-22T16:59:49.721Z,11.42
2023-01-22T17:02:19.482Z,11.35
2023-01-22T17:04:48.218Z,11.55
2023-01-22T17:07:31.870Z,11.32
2023-01-22T17:10:01.589Z,11.49
2023-01-22T17:12:29.602Z,11.67
2023-01-22T17:14:58.414Z,11.50
2023-01-22T17:17:26.617Z,11.40
2023-01-22T17:19:55.416Z,11.69
2023-01-22T17:22:24.419Z,11.66
2023-01-22T17:24:52.879Z,11.53
2023-01-22T17:27:21.732Z,11.58
2023-01-22T17:29:50.047Z,11.63
2023-01-22T17:32:17.991Z,11.65
2023-01-22T17:34:47.589Z,11.50
2023-01-22T17:37:15.583Z,11.60
2023-01-22T17:39:46.308Z,11.65
2023-01-22T17:42:14.358Z,11.53
2023-01-22T17:44:42.681Z,11.56
2023-01-22T17:47:11.325Z,11.39
2023-01-22T17:49:39.771Z,11.29
2023-01-22T17:52:09.503Z,11.44
2023-01-22T17:54:38.629Z,11.68
2023-01-22T17:57:07.163Z,11.46
2023-01-22T17:59:35.504Z,11.32
2023-01-22T18:02:03.828Z,11.38
2023-01-22T18:04:34.774Z,11.43
2023-01-22T18:07:04.028Z,11.09
2023-01-22T18:09:32.404Z,11.08
2023-01-22T18:12:00.637Z,11.08
2023-01-22T18:14:34.208Z,11.12
2023-01-22T18:17:02.760Z,11.08
2023-01-22T18:19:30.759Z,11.04
2023-01-22T18:21:59.091Z,11.02
2023-01-22T18:24:27.547Z,11.03
2023-01-22T18:26:58.868Z,11.11
2023-01-22T18:29:27.389Z,11.09
2023-01-22T18:31:55.758Z,10.95
2023-01-22T18:34:24.152Z,10.76
2023-01-22T18:36:52.542Z,11.10
2023-01-22T18:39:21.445Z,10.97
2023-01-22T18:41:49.809Z,10.73
2023-01-22T18:44:19.773Z,10.72
2023-01-22T18:46:52.819Z,10.45
2023-01-22T18:49:20.748Z,10.62
2023-01-22T18:51:49.627Z,10.63
2023-01-22T18:54:17.733Z,10.63
2023-01-22T18:56:47.440Z,10.61
2023-01-22T18:59:18.181Z,10.63
2023-01-22T19:01:51.976Z,10.60
2023-01-22T19:04:22.178Z,10.69
2023-01-22T19:06:52.999Z,10.52
2023-01-22T19:09:21.800Z,10.61
2023-01-22T19:11:52.641Z,10.46
2023-01-22T19:14:22.536Z,10.41
2023-01-22T19:16:53.576Z,10.72
2023-01-22T19:19:25.133Z,10.77
2023-01-22T19:21:55.639Z,10.71
2023-01-22T19:24:28.464Z,10.58
2023-01-22T19:26:57.736Z,10.81
2023-01-22T19:29:26.749Z,10.91
2023-01-22T19:31:55.962Z,10.83
2023-01-22T19:34:24.955Z,10.76
2023-01-22T19:37:01.665Z,10.52
2023-01-22T19:39:31.349Z,10.48
2023-01-22T19:42:05.377Z,10.61
2023-01-22T19:44:36.269Z,10.41
2023-01-22T19:47:04.368Z,10.40
2023-01-22T19:49:32.951Z,10.13
2023-01-22T19:52:00.958Z,10.18
2023-01-22T19:54:29.290Z,10.30
2023-01-22T19:56:57.229Z,10.34
2023-01-22T19:59:25.608Z,10.37
2023-01-22T20:01:54.572Z,10.57
2023-01-22T20:04:25.801Z,10.45
2023-01-22T20:06:59.979Z,10.08
2023-01-22T20:09:30.050Z,10.15
2023-01-22T20:11:58.417Z,10.26
2023-01-22T20:14:30.553Z,9.81
2023-01-22T20:17:00.410Z,9.99
2023-01-22T20:19:30.674Z,9.86
2023-01-22T20:22:00.842Z,10.13
2023-01-22T20:24:29.188Z,10.05
2023-01-22T20:26:58.749Z,10.15
2023-01-22T20:29:27.618Z,10.28
2023-01-22T20:31:56.929Z,10.44
2023-01-22T20:34:26.119Z,10.44
2023-01-22T20:36:54.092Z,10.45
2023-01-22T20:39:22.452Z,10.53
2023-01-22T20:41:50.491Z,10.55
2023-01-22T20:44:18.883Z,10.34
2023-01-22T20:46:48.989Z,10.31
2023-01-22T20:49:17.330Z,10.22
2023-01-22T20:51:45.381Z,10.33
2023-01-22T20:54:14.133Z,10.08
2023-01-22T20:56:42.163Z,9.87
2023-01-22T20:59:14.131Z,9.58
2023-01-22T21:01:42.273Z,9.90
2023-01-22T21:04:12.948Z,9.66
2023-01-22T21:06:41.635Z,9.43
2023-01-22T21:09:10.884Z,9.24
2023-01-22T21:11:41.207Z,9.31
2023-01-22T21:14:16.088Z,9.17
2023-01-22T21:16:44.847Z,9.34
2023-01-22T21:19:18.069Z,9.15
2023-01-22T21:21:46.718Z,9.01
2023-01-22T21:24:15.573Z,9.06
2023-01-22T21:26:43.758Z,9.07
2023-01-22T21:29:18.296Z,9.04
2023-01-22T21:31:50.342Z,8.90
2023-01-22T21:34:21.004Z,8.93
2023-01-22T21:36:50.437Z,9.02
2023-01-22T21:39:20.874Z,9.18
2023-01-22T21:41:49.277Z,8.92
2023-01-22T21:44:38.466Z,8.78
2023-01-22T21:47:06.468Z,8.84
2023-01-22T21:49:36.394Z,8.83
2023-01-22T21:52:08.079Z,8.97
2023-01-22T21:54:39.050Z,9.09
2023-01-22T21:57:09.274Z,9.00
2023-01-22T21:59:37.514Z,8.96
2023-01-22T22:02:06.899Z,8.81
2023-01-22T22:04:35.298Z,8.97
2023-01-22T22:07:03.295Z,9.03
2023-01-22T22:09:31.613Z,9.25
2023-01-22T22:12:00.968Z,9.08
2023-01-22T22:14:30.361Z,9.26
2023-01-22T22:16:59.271Z,9.30
2023-01-22T22:19:29.080Z,8.88
2023-01-22T22:21:57.188Z,8.89
2023-01-22T22:24:25.642Z,8.85
2023-01-22T22:26:53.509Z,9.00
2023-01-22T22:29:21.713Z,9.12
2023-01-22T22:31:49.656Z,8.84
2023-01-22T22:34:18.925Z,8.87
2023-01-22T22:36:46.828Z,8.93
2023-01-22T22:39:15.117Z,8.81
2023-01-22T22:41:43.033Z,8.90
2023-01-22T22:44:11.810Z,9.19
2023-01-22T22:46:39.912Z,8.91
2023-01-22T22:49:12.246Z,9.19
2023-01-22T22:51:42.975Z,9.09
2023-01-22T22:54:20.363Z,8.93
2023-01-22T22:56:49.932Z,8.97
2023-01-22T22:59:21.287Z,8.79
2023-01-22T23:01:50.215Z,8.85
2023-01-22T23:04:18.554Z,8.86
2023-01-22T23:06:47.385Z,8.83
2023-01-22T23:09:19.853Z,9.02
2023-01-22T23:11:52.104Z,8.82
2023-01-22T23:14:20.458Z,8.90
2023-01-22T23:16:49.146Z,8.93
2023-01-22T23:19:24.722Z,8.93
2023-01-22T23:21:56.696Z,8.93
2023-01-22T23:24:25.644Z,8.77
2023-01-22T23:26:53.736Z,8.74
2023-01-22T23:29:24.663Z,8.67
2023-01-22T23:31:53.066Z,8.60
2023-01-22T23:34:22.091Z,8.52
2023-01-22T23:36:51.069Z,8.62
2023-01-22T23:39:21.002Z,8.41
2023-01-22T23:41:49.209Z,8.54
2023-01-22T23:44:17.892Z,8.58
2023-01-22T23:46:46.073Z,8.51
2023-01-22T23:49:14.499Z,8.57
2023-01-22T23:51:44.672Z,8.41
2023-01-22T23:54:13.205Z,8.31
2023-01-22T23:56:41.109Z,8.61
2023-01-22T23:59:11.451Z,8.48
